アテネ の空港の天気 - METARとTAF

アテネ国際空港 ( LGAV / ATH ) - ギリシャ アテネ
飛行場実況気象(Metar)
観測時間02/05 21:20 EET (02/05 19:20 UTC)
風向・風速北 12m/s 瞬間風速17m/s
視程10km以上
天気現象
少しの雲 雲底高度 910m
全天の4割程度の雲 雲底高度 1220m
気温5℃
湿度52%
気圧1016hPa
METARLGAV 051920Z 36024G34KT 9999 FEW030 SCT040 05/M04 Q1016 NOSIG
過去の天気等 Google飛行場航空写真 Wunderground天気予報

過去48時間のMETAR

飛行場予報(TAF)
発表時間: 2/05 19:00 EET (2/05 17:00 UTC)
予報対象時間: 5日20時 EET ~ 6日20時 EET
風向・風速北 8m/s
視程8000m
少しの雲 雲底高度 300m
全天の8割程度の雲 雲底高度 550m
5日20時 EET ~ 6日20時 EET に一時的に
風向・風速北 9m/s 瞬間風速 18m/s
5日20時 EET ~ 6日20時 EET に 確率 40% で一時的に
視程4000m
天気現象
少しの雲 雲底高度 300m
少しの塔状積雲 雲底高度 490m
全天の8割程度の雲 雲底高度 550m
全天の8割程度の雲 雲底高度 2130m
5日20時 EET ~ 6日14時 EET に 確率 30% で一時的に
視程4000m
天気現象雪雨
全天の4割程度の雲 雲底高度 300m
全天の8割程度の雲 雲底高度 760m
全天を覆う雲 雲底高度 1830m
5日20時 EET ~ 6日14時 EET に 確率 30% で一時的に
視程2000m
天気現象
全天の4割程度の雲 雲底高度 300m
全天の8割程度の雲 雲底高度 610m
全天を覆う雲 雲底高度 1520m
TAF LGAV 051700Z 0518/0618 35015KT 8000 FEW010 BKN018
TEMPO 0518/0618 36018G35KT
PROB40 TEMPO 0518/0618 4000 RA FEW010 FEW016TCU BKN018 BKN070
PROB30 TEMPO 0518/0612 4000 SNRA SCT010 BKN025 OVC060
PROB30 TEMPO 0518/0612 2000 SN SCT010 BKN020 OVC050